Terminal Aerodrome Forecast
Issued by NWS New Orleans/Baton Rouge, LA

Home | Current Version | Previous Version | Text Only | Print | Product List | Glossary On
Versions: 1 2 3 4 5 6 7 8 9 10 11 12 13 14
000
FTUS44 KLIX 010500
TAFBTR
TAF
KBTR 010520Z 0106/0206 11007KT P6SM SCT035 BKN080
     FM011000 12006KT P6SM OVC025
     FM011300 14007KT 3SM -SHRA OVC008
     FM011800 20009KT 2SM SHRA OVC015
     FM020000 23007KT 3SM -SHRA OVC015
     FM020300 28011KT 3SM -SHRA OVC008=

USA.gov is the U.S. government's official web portal to all federal, state and local government web resources and services.